Bf Caroda — V2CV5 — position and weather

sailwx.info

Track history (hours):
 
Tides and Currents Weather Stations Pressure Air Temp Water Temp Dewpoint Dewpoint Depression Visibility Wind Speed Wind Dir Waves Ship Positions

Bf Caroda

Last reported at 2014-Nov-23 18:33 UTC. Time now 2014-Nov-23 18:55 UTC.
Position N 40°38' E 002°10'.

Length 134 m; draft 7.4 m.

Type: Ship (hazmat cat A). MMSI: 304678000.

Date/timePositionNaut miles runAvg speedWind from/ knotsBaromVisibWave heightAir tempDewpointWater temp
2014-Nov-23 18:33N 40°38' E 002°10'1515.2
2014-Nov-23 17:33N 40°25' E 001°59'1615.3
2014-Nov-23 16:32N 40°12' E 001°47'1515.8
2014-Nov-23 15:33N 39°60' E 001°36'1716.5
2014-Nov-23 14:33N 39°46' E 001°24'1716.7
2014-Nov-23 13:31N 39°32' E 001°11'11416.3
2014-Nov-23 06:33N 37°57' W 000°10'1816.7
2014-Nov-23 05:30N 37°43' W 000°22'1916.5
2014-Nov-23 04:22N 37°29' W 000°38'24415.4
2014-Nov-22 12:33N 35°58' W 005°20'  
2014-Nov-18 00:33N 35°57' W 005°32'4 0.2
2014-Nov-17 02:32N 35°59' W 005°28'22814.2
2014-Nov-16 10:28N 37°16' W 001°00'1515.9
2014-Nov-16 09:33N 37°25' W 000°46'1615.9
2014-Nov-16 08:33N 37°36' W 000°32'2316.1
2014-Nov-16 07:08N 37°56' W 000°16'8613.2
2014-Nov-16 00:33N 39°22' W 000°13'7 7.1
2014-Nov-15 23:33N 39°27' W 000°19'0 0.0
2014-Nov-15 22:29N 39°27' W 000°19'0 0.0
2014-Nov-15 21:28N 39°27' W 000°19'0 0.0
2014-Nov-15 20:31N 39°27' W 000°19'0 0.0
2014-Nov-15 19:33N 39°27' W 000°19'0 0.0
2014-Nov-15 18:33N 39°27' W 000°19'0 0.0
2014-Nov-15 17:33N 39°27' W 000°19'0 0.0
2014-Nov-15 15:32N 39°27' W 000°19'0 0.0
2014-Nov-15 14:31N 39°27' W 000°19'0 0.0
2014-Nov-15 13:31N 39°27' W 000°19'0 0.0
2014-Nov-15 12:30N 39°27' W 000°19'0 0.0
2014-Nov-15 11:33N 39°27' W 000°19'0 0.0
2014-Nov-15 10:33N 39°27' W 000°19'60 9.3
2014-Nov-15 04:08N 40°07' E 000°39'1014.7
2014-Nov-15 03:27N 40°13' E 000°49'1314.9
2014-Nov-15 02:33N 40°22' E 001°02'1615.6
2014-Nov-15 01:33N 40°32' E 001°18'1916.1
2014-Nov-15 00:24N 40°44' E 001°37'1716.0
2014-Nov-14 23:22N 40°55' E 001°53'3515.5
2014-Nov-14 21:05N 41°18' E 002°28'713.4
2014-Nov-14 20:33N 41°23' E 002°35'1515.0
2014-Nov-14 19:32N 41°33' E 002°51'1514.8
2014-Nov-14 18:33N 41°43' E 003°05'1414.3
2014-Nov-14 17:33N 41°53' E 003°19'1414.3
2014-Nov-14 16:33N 42°02' E 003°33'1814.8
2014-Nov-14 15:20N 42°15' E 003°51'1214.4
2014-Nov-14 14:30N 42°23' E 004°03'4615.0
2014-Nov-14 11:24N 42°56' E 004°47'1315.5
2014-Nov-14 10:33N 43°05' E 004°60'1514.7
2014-Nov-14 09:34N 43°17' E 005°12'7 7.0
2014-Nov-14 08:32N 43°21' E 005°20'0 0.0
2014-Nov-14 07:31N 43°21' E 005°20'0 0.0
2014-Nov-14 06:31N 43°21' E 005°20'0 0.0
2014-Nov-14 05:31N 43°21' E 005°20'0 0.0
2014-Nov-14 04:33N 43°21' E 005°20'0 0.0
2014-Nov-14 03:33N 43°21' E 005°20'0 0.0
2014-Nov-14 02:32N 43°21' E 005°20'0 0.0
2014-Nov-14 01:32N 43°21' E 005°20'0 0.0
2014-Nov-14 00:33N 43°21' E 005°20'0 0.0
2014-Nov-13 23:31N 43°21' E 005°20'0 0.0
2014-Nov-13 22:34N 43°21' E 005°20'0 0.0
2014-Nov-13 21:33N 43°21' E 005°20'0 0.0
2014-Nov-13 20:33N 43°21' E 005°20'0 0.0
2014-Nov-13 19:32N 43°21' E 005°20'  
Track history (hours):
 
Tides and Currents Weather Stations Pressure Air Temp Water Temp Dewpoint Dewpoint Depression Visibility Wind Speed Wind Dir Waves Ship Positions

Bf Caroda

Last reported at 2014-Nov-23 18:33 UTC. Time now 2014-Nov-23 18:55 UTC.
Position N 40°38' E 002°10'.

Length 134 m; draft 7.4 m.

Type: Ship (hazmat cat A). MMSI: 304678000.

Date/timePositionNaut miles runAvg speedWind from/ knotsBaromVisibWave heightAir tempDewpointWater temp
2014-Nov-23 18:33N 40°38' E 002°10'1515.2
2014-Nov-23 17:33N 40°25' E 001°59'1615.3
2014-Nov-23 16:32N 40°12' E 001°47'1515.8
2014-Nov-23 15:33N 39°60' E 001°36'1716.5
2014-Nov-23 14:33N 39°46' E 001°24'1716.7
2014-Nov-23 13:31N 39°32' E 001°11'11416.3
2014-Nov-23 06:33N 37°57' W 000°10'1816.7
2014-Nov-23 05:30N 37°43' W 000°22'1916.5
2014-Nov-23 04:22N 37°29' W 000°38'24415.4
2014-Nov-22 12:33N 35°58' W 005°20'  
2014-Nov-18 00:33N 35°57' W 005°32'4 0.2
2014-Nov-17 02:32N 35°59' W 005°28'22814.2
2014-Nov-16 10:28N 37°16' W 001°00'1515.9
2014-Nov-16 09:33N 37°25' W 000°46'1615.9
2014-Nov-16 08:33N 37°36' W 000°32'2316.1
2014-Nov-16 07:08N 37°56' W 000°16'8613.2
2014-Nov-16 00:33N 39°22' W 000°13'7 7.1
2014-Nov-15 23:33N 39°27' W 000°19'0 0.0
2014-Nov-15 22:29N 39°27' W 000°19'0 0.0
2014-Nov-15 21:28N 39°27' W 000°19'0 0.0
2014-Nov-15 20:31N 39°27' W 000°19'0 0.0
2014-Nov-15 19:33N 39°27' W 000°19'0 0.0
2014-Nov-15 18:33N 39°27' W 000°19'0 0.0
2014-Nov-15 17:33N 39°27' W 000°19'0 0.0
2014-Nov-15 15:32N 39°27' W 000°19'0 0.0
2014-Nov-15 14:31N 39°27' W 000°19'0 0.0
2014-Nov-15 13:31N 39°27' W 000°19'0 0.0
2014-Nov-15 12:30N 39°27' W 000°19'0 0.0
2014-Nov-15 11:33N 39°27' W 000°19'0 0.0
2014-Nov-15 10:33N 39°27' W 000°19'60 9.3
2014-Nov-15 04:08N 40°07' E 000°39'1014.7
2014-Nov-15 03:27N 40°13' E 000°49'1314.9
2014-Nov-15 02:33N 40°22' E 001°02'1615.6
2014-Nov-15 01:33N 40°32' E 001°18'1916.1
2014-Nov-15 00:24N 40°44' E 001°37'1716.0
2014-Nov-14 23:22N 40°55' E 001°53'3515.5
2014-Nov-14 21:05N 41°18' E 002°28'713.4
2014-Nov-14 20:33N 41°23' E 002°35'1515.0
2014-Nov-14 19:32N 41°33' E 002°51'1514.8
2014-Nov-14 18:33N 41°43' E 003°05'1414.3
2014-Nov-14 17:33N 41°53' E 003°19'1414.3
2014-Nov-14 16:33N 42°02' E 003°33'1814.8
2014-Nov-14 15:20N 42°15' E 003°51'1214.4
2014-Nov-14 14:30N 42°23' E 004°03'4615.0
2014-Nov-14 11:24N 42°56' E 004°47'1315.5
2014-Nov-14 10:33N 43°05' E 004°60'1514.7
2014-Nov-14 09:34N 43°17' E 005°12'7 7.0
2014-Nov-14 08:32N 43°21' E 005°20'0 0.0
2014-Nov-14 07:31N 43°21' E 005°20'0 0.0
2014-Nov-14 06:31N 43°21' E 005°20'0 0.0
2014-Nov-14 05:31N 43°21' E 005°20'0 0.0
2014-Nov-14 04:33N 43°21' E 005°20'0 0.0
2014-Nov-14 03:33N 43°21' E 005°20'0 0.0
2014-Nov-14 02:32N 43°21' E 005°20'0 0.0
2014-Nov-14 01:32N 43°21' E 005°20'0 0.0
2014-Nov-14 00:33N 43°21' E 005°20'0 0.0
2014-Nov-13 23:31N 43°21' E 005°20'0 0.0
2014-Nov-13 22:34N 43°21' E 005°20'0 0.0
2014-Nov-13 21:33N 43°21' E 005°20'0 0.0
2014-Nov-13 20:33N 43°21' E 005°20'0 0.0
2014-Nov-13 19:32N 43°21' E 005°20'  

Dump ship's entire track history